^^
Saratoga-Weather Station Historical Data
Daily Summary for April 25, 2020 Units:  English    Metric   Both
Daily Weekly Monthly Yearly Custom
  High: Low: Average:
Temperature: 57.2 °F 48.7 °F 52.7 °F
Dew Point: 52.2 °F 47.1 °F 49.8 °F
Humidity: 96% 76% 90%
Wind Speed: 4.9mph 0mph 1.2mph
Wind Gust: 10mph - -
Wind- - ESE
Pressure: 29.9 in 29.6 in -
Precipitation: 0.36 in    
Historical Graphs
 
 
Tabular Data for April 25, 2020
Time Temperature Dew Point Pressure Wind Wind Speed Wind Gust Humidity Rainfall Rate (Hourly) solar
00:04 56.8 °F 52 °F 29.9 in North 2.9 mph 8 mph 84% 0 in 0 W/m2
00:09 57 °F 52.2 °F 29.9 in NNW 0.9 mph 2 mph 84% 0 in 0 W/m2
00:14 57 °F 52 °F 29.9 in NNW 0.9 mph 3 mph 83% 0 in 0 W/m2
00:19 57 °F 52 °F 29.9 in ENE 4 mph 10 mph 83% 0 in 0 W/m2
00:24 57.2 °F 52.2 °F 29.9 in North 2.9 mph 4 mph 83% 0 in 0 W/m2
00:29 57.2 °F 52.2 °F 29.8 in NNE 0.9 mph 10 mph 83% 0 in 0 W/m2
00:34 57 °F 52 °F 29.9 in North 0.9 mph 1 mph 83% 0 in 0 W/m2
00:40 56.8 °F 51.4 °F 29.9 in Calm   4 mph 82% 0 in 0 W/m2
00:45 56.8 °F 51.4 °F 29.8 in ENE 2 mph 3 mph 82% 0 in 0 W/m2
00:50 56.8 °F 51.4 °F 29.8 in North 4.9 mph 5 mph 82% 0 in 0 W/m2
00:55 56.8 °F 51.4 °F 29.9 in WNW 2 mph 9 mph 82% 0 in 0 W/m2
01:00 57 °F 51.6 °F 29.8 in NE 4.9 mph 5 mph 82% 0 in 0 W/m2
01:05 56.8 °F 51.4 °F 29.8 in NE 4 mph 4 mph 82% 0 in 0 W/m2
01:10 56.8 °F 51.4 °F 29.8 in ENE 0.9 mph 5 mph 82% 0 in 0 W/m2
01:15 56.7 °F 51.3 °F 29.8 in NE 0.9 mph 2 mph 82% 0 in 0 W/m2
01:20 56.5 °F 51.4 °F 29.8 in NW 2.9 mph 3 mph 83% 0 in 0 W/m2
01:25 56.1 °F 51.1 °F 29.8 in NE 2 mph 3 mph 83% 0 in 0 W/m2
01:30 56.1 °F 51.1 °F 29.8 in NE 4.9 mph 6 mph 83% 0 in 0 W/m2
01:35 55.9 °F 50.9 °F 29.8 in North 0.9 mph 3 mph 83% 0 in 0 W/m2
01:40 55.8 °F 50.7 °F 29.8 in Calm   6 mph 83% 0 in 0 W/m2
01:45 55.8 °F 50.7 °F 29.8 in Calm   2 mph 83% 0 in 0 W/m2
01:50 55.6 °F 50.9 °F 29.8 in Calm   2 mph 84% 0 in 0 W/m2
01:55 55.4 °F 50.7 °F 29.8 in NE 0.9 mph 4 mph 84% 0 in 0 W/m2
02:00 55.2 °F 50.5 °F 29.8 in ENE 2.9 mph 4 mph 84% 0 in 0 W/m2
02:05 55 °F 50.4 °F 29.8 in NE 0.9 mph 2 mph 84% 0 in 0 W/m2
02:10 54.9 °F 50.4 °F 29.8 in NE 0.9 mph 4 mph 85% 0 in 0 W/m2
02:15 54.9 °F 50.4 °F 29.8 in Calm   4 mph 85% 0 in 0 W/m2
02:20 54.7 °F 50.2 °F 29.8 in NW 0.9 mph 2 mph 85% 0 in 0 W/m2
02:25 54.3 °F 50.2 °F 29.8 in Calm   4 mph 86% 0 in 0 W/m2
02:30 54.1 °F 50 °F 29.8 in Calm   3 mph 86% 0 in 0 W/m2
02:35 54 °F 49.8 °F 29.8 in ENE 0.9 mph 3 mph 86% 0 in 0 W/m2
02:40 53.8 °F 50 °F 29.8 in ENE 2 mph 4 mph 87% 0 in 0 W/m2
02:45 53.6 °F 49.8 °F 29.8 in ENE 2 mph 4 mph 87% 0 in 0 W/m2
02:50 53.4 °F 50 °F 29.8 in NE 2 mph 3 mph 88% 0 in 0 W/m2
02:55 53.2 °F 49.8 °F 29.8 in Calm   2 mph 88% 0 in 0 W/m2
02:00 53.2 °F 49.8 °F 29.8 in Calm   3 mph 88% 0 in 0 W/m2
02:05 53.2 °F 50 °F 29.8 in Calm   3 mph 89% 0 in 0 W/m2
02:10 53.1 °F 49.8 °F 29.8 in ENE 2 mph 4 mph 89% 0 in 0 W/m2
02:15 53.1 °F 49.8 °F 29.8 in NE 2.9 mph 4 mph 89% 0 in 0 W/m2
02:20 53.2 °F 50 °F 29.8 in ENE 2 mph 3 mph 89% 0 in 0 W/m2
02:25 53.1 °F 49.6 °F 29.8 in NE 4 mph 4 mph 88% 0 in 0 W/m2
02:30 53.2 °F 49.8 °F 29.8 in East 2.9 mph 5 mph 88% 0 in 0 W/m2
02:35 53.1 °F 49.6 °F 29.8 in ENE 2 mph 4 mph 88% 0 in 0 W/m2
02:40 53.1 °F 49.6 °F 29.8 in East 2 mph 7 mph 88% 0 in 0 W/m2
02:45 52.9 °F 49.5 °F 29.8 in Calm   4 mph 88% 0 in 0 W/m2
02:50 52.9 °F 49.5 °F 29.8 in ENE 4 mph 6 mph 88% 0 in 0 W/m2
02:56 52.9 °F 49.5 °F 29.8 in ENE 2 mph 4 mph 88% 0 in 0 W/m2
03:01 52.7 °F 49.3 °F 29.8 in NE 2.9 mph 6 mph 88% 0 in 0 W/m2
03:06 52.5 °F 49.1 °F 29.8 in Calm   1 mph 88% 0 in 0 W/m2
03:11 52 °F 48.6 °F 29.8 in Calm   3 mph 88% 0 in 0 W/m2
03:16 51.6 °F 48.6 °F 29.8 in East 2.9 mph 4 mph 89% 0 in 0 W/m2
03:21 51.4 °F 48.6 °F 29.8 in NE 0.9 mph 3 mph 90% 0 in 0 W/m2
03:26 51.6 °F 49.1 °F 29.8 in East 2.9 mph 4 mph 91% 0 in 0 W/m2
03:31 52 °F 49.5 °F 29.8 in ENE 4 mph 8 mph 91% 0 in 0 W/m2
03:36 52.3 °F 49.5 °F 29.8 in NE 0.9 mph 7 mph 90% 0 in 0 W/m2
03:41 52.5 °F 49.5 °F 29.8 in NE 4.9 mph 8 mph 89% 0 in 0 W/m2
03:46 52.5 °F 49.5 °F 29.8 in ENE 2.9 mph 4 mph 89% 0 in 0 W/m2
03:51 52.3 °F 49.3 °F 29.8 in East 2 mph 3 mph 89% 0 in 0 W/m2
03:56 52.3 °F 49.3 °F 29.8 in ENE 2 mph 3 mph 89% 0 in 0 W/m2
04:01 52.2 °F 49.1 °F 29.8 in ENE 2 mph 2 mph 89% 0 in 0 W/m2
04:06 52 °F 48.9 °F 29.8 in NE 0.9 mph 1 mph 89% 0 in 0 W/m2
04:11 51.6 °F 48.7 °F 29.8 in East 0.9 mph 4 mph 90% 0 in 0 W/m2
04:16 51.4 °F 48.6 °F 29.8 in ENE 4 mph 6 mph 90% 0 in 0 W/m2
04:21 51.6 °F 48.7 °F 29.7 in East 0.9 mph 3 mph 90% 0 in 0 W/m2
04:26 51.4 °F 48.6 °F 29.7 in NE 0.9 mph 6 mph 90% 0 in 0 W/m2
04:31 51.4 °F 48.6 °F 29.7 in NE 2 mph 3 mph 90% 0 in 0 W/m2
04:36 51.4 °F 48.6 °F 29.7 in ENE 4.9 mph 8 mph 90% 0 in 0 W/m2
04:41 51.4 °F 48.6 °F 29.7 in NNE 2.9 mph 6 mph 90% 0 in 0 W/m2
04:46 51.4 °F 48.6 °F 29.7 in NE 0.9 mph 8 mph 90% 0 in 0 W/m2
04:51 51.3 °F 48.4 °F 29.7 in ENE 0.9 mph 1 mph 90% 0 in 0 W/m2
04:56 51.1 °F 48.2 °F 29.7 in North 0.9 mph 3 mph 90% 0 in 0 W/m2
05:01 50.7 °F 47.8 °F 29.7 in NNE 0.9 mph 1 mph 90% 0 in 0 W/m2
05:06 50.7 °F 48.2 °F 29.7 in ENE 4 mph 9 mph 91% 0 in 0 W/m2
05:11 51.1 °F 48.6 °F 29.7 in WNW 2 mph 5 mph 91% 0 in 0 W/m2
05:16 51.1 °F 48.6 °F 29.7 in Calm   9 mph 91% 0 in 0 W/m2
05:21 51.1 °F 48.2 °F 29.7 in Calm   2 mph 90% 0 in 0 W/m2
05:26 50.7 °F 47.8 °F 29.7 in Calm   3 mph 90% 0 in 0 W/m2
05:31 50.7 °F 48.2 °F 29.7 in Calm   2 mph 91% 0 in 0 W/m2
05:36 50.5 °F 48 °F 29.7 in Calm   2 mph 91% 0 in 0 W/m2
05:41 50.5 °F 48 °F 29.7 in North 0.9 mph 2 mph 91% 0 in 0 W/m2
05:46 50.4 °F 47.8 °F 29.7 in Calm   2 mph 91% 0 in 0 W/m2
05:51 50.4 °F 47.8 °F 29.7 in Calm     91% 0 in 0 W/m2
05:56 50.2 °F 48 °F 29.7 in Calm   2 mph 92% 0 in 0 W/m2
06:01 49.8 °F 47.7 °F 29.7 in Calm   2 mph 92% 0 in 0 W/m2
06:06 49.6 °F 47.5 °F 29.7 in Calm     92% 0 in 0 W/m2
06:11 49.5 °F 47.3 °F 29.7 in Calm   2 mph 92% 0 in 0 W/m2
06:16 49.5 °F 47.5 °F 29.7 in Calm     93% 0 in 0 W/m2
06:21 49.3 °F 47.3 °F 29.7 in WNW 2 mph 2 mph 93% 0 in 0 W/m2
06:26 49.3 °F 47.3 °F 29.7 in Calm     93% 0 in 0 W/m2
06:31 49.3 °F 47.7 °F 29.7 in Calm     94% 0 in 0 W/m2
06:36 49.1 °F 47.5 °F 29.7 in Calm     94% 0 in 0 W/m2
06:41 49.1 °F 47.5 °F 29.7 in Calm   2 mph 94% 0 in 0 W/m2
06:46 48.9 °F 47.3 °F 29.7 in Calm     94% 0 in 0 W/m2
06:51 48.9 °F 47.3 °F 29.7 in SSW 0.9 mph 1 mph 94% 0 in 0 W/m2
06:56 48.7 °F 47.1 °F 29.7 in ENE 0.9 mph 3 mph 94% 0 in 0 W/m2
07:02 48.7 °F 47.1 °F 29.7 in Calm     94% 0 in 0 W/m2
07:07 48.7 °F 47.1 °F 29.7 in Calm   2 mph 94% 0 in 0 W/m2
07:12 48.7 °F 47.3 °F 29.7 in ENE 0.9 mph 3 mph 95% 0 in 0 W/m2
07:17 48.9 °F 47.5 °F 29.7 in Calm   1 mph 95% 0 in 0 W/m2
07:22 49.1 °F 47.7 °F 29.7 in Calm   2 mph 95% 0 in 0 W/m2
07:27 49.3 °F 47.8 °F 29.7 in Calm   1 mph 95% 0 in 5 W/m2
07:32 49.3 °F 47.8 °F 29.7 in NE 0.9 mph 2 mph 95% 0 in 9 W/m2
07:37 49.5 °F 48 °F 29.7 in NE 2.9 mph 3 mph 95% 0 in 11 W/m2
07:42 49.6 °F 48.2 °F 29.7 in ENE 0.9 mph 3 mph 95% 0 in 14 W/m2
07:47 50 °F 48.4 °F 29.7 in ENE 2 mph 3 mph 94% 0 in 19 W/m2
07:52 50.4 °F 48.7 °F 29.7 in ENE 2.9 mph 4 mph 94% 0 in 19 W/m2
07:57 50.5 °F 48.9 °F 29.7 in ENE 2 mph 3 mph 94% 0 in 21 W/m2
08:02 50.7 °F 48.7 °F 29.7 in Calm   2 mph 93% 0 in 26 W/m2
08:07 50.9 °F 48.9 °F 29.7 in ENE 2 mph 3 mph 93% 0 in 26 W/m2
08:12 51.1 °F 49.1 °F 29.7 in East 2.9 mph 4 mph 93% 0 in 26 W/m2
08:17 51.4 °F 49.3 °F 29.7 in East 0.9 mph 3 mph 92% 0 in 39 W/m2
08:22 51.6 °F 49.5 °F 29.7 in ENE 0.9 mph 4 mph 92% 0 in 39 W/m2
08:27 51.8 °F 49.3 °F 29.7 in Calm     91% 0 in 26 W/m2
08:32 52 °F 49.5 °F 29.7 in ENE 0.9 mph 1 mph 91% 0 in 30 W/m2
08:37 52.2 °F 49.6 °F 29.7 in Calm     91% 0 in 32 W/m2
08:42 52.2 °F 49.6 °F 29.7 in Calm   1 mph 91% 0 in 47 W/m2
08:47 52.5 °F 49.6 °F 29.7 in NE 4.9 mph 6 mph 90% 0 in 69 W/m2
08:52 52.9 °F 49.6 °F 29.7 in East 0.9 mph 3 mph 89% 0 in 104 W/m2
08:57 53.2 °F 50 °F 29.7 in NE 4 mph 4 mph 89% 0 in 97 W/m2
09:02 53.4 °F 50 °F 29.7 in ENE 2 mph 5 mph 88% 0 in 69 W/m2
09:07 54 °F 50.2 °F 29.7 in ESE 2 mph 4 mph 87% 0 in 84 W/m2
09:12 54.1 °F 50 °F 29.7 in ENE 2 mph 4 mph 86% 0 in 93 W/m2
09:17 54.3 °F 50.2 °F 29.7 in East 2 mph 3 mph 86% 0 in 127 W/m2
09:22 54.3 °F 50.2 °F 29.7 in ENE 2 mph 6 mph 86% 0 in 135 W/m2
09:27 54.5 °F 50.4 °F 29.7 in NE 4.9 mph 6 mph 86% 0 in 125 W/m2
09:32 54.7 °F 50.2 °F 29.7 in NE 2 mph 4 mph 85% 0 in 102 W/m2
09:37 54.7 °F 50.2 °F 29.7 in East 4 mph 6 mph 85% 0 in 113 W/m2
09:42 54.9 °F 50.4 °F 29.7 in ENE 2.9 mph 4 mph 85% 0 in 113 W/m2
09:47 54.9 °F 50.4 °F 29.7 in SE 2.9 mph 5 mph 85% 0 in 104 W/m2
09:52 54.9 °F 50.4 °F 29.7 in NE 2 mph 5 mph 85% 0 in 93 W/m2
09:57 55 °F 50.4 °F 29.7 in NE 2 mph 4 mph 84% 0 in 121 W/m2
10:02 55.2 °F 50.5 °F 29.7 in NE 2.9 mph 4 mph 84% 0 in 135 W/m2
10:07 55.4 °F 50.7 °F 29.7 in NE 2.9 mph 5 mph 84% 0 in 132 W/m2
10:12 55.6 °F 50.5 °F 29.7 in NE 2.9 mph 4 mph 83% 0 in 116 W/m2
10:17 55.6 °F 50.2 °F 29.7 in NNE 2 mph 4 mph 82% 0 in 107 W/m2
10:22 55.9 °F 50.5 °F 29.7 in NE 2.9 mph 4 mph 82% 0 in 105 W/m2
10:27 56.1 °F 50 °F 29.7 in North 2 mph 4 mph 80% 0 in 135 W/m2
10:32 56.5 °F 50.4 °F 29.7 in ENE 0.9 mph 3 mph 80% 0 in 77 W/m2
10:43 57 °F 49.5 °F 29.7 in Calm   2 mph 76% 0 in 46 W/m2
10:48 57.2 °F 49.6 °F 29.7 in North 2.9 mph 4 mph 76% 0 in 40 W/m2
10:53 57.2 °F 49.6 °F 29.7 in Calm   4 mph 76% 0 in 35 W/m2
10:58 57.2 °F 49.6 °F 29.7 in NW 0.9 mph 3 mph 76% 0 in 37 W/m2
11:03 57.2 °F 49.6 °F 29.7 in NW 0.9 mph 6 mph 76% 0 in 35 W/m2
11:08 57 °F 49.8 °F 29.7 in WNW 0.9 mph 3 mph 77% 0 in 46 W/m2
11:13 56.8 °F 50 °F 29.7 in Calm   4 mph 78% 0 in 53 W/m2
11:18 56.7 °F 50.2 °F 29.7 in North 0.9 mph 4 mph 79% 0 in 74 W/m2
11:23 56.5 °F 50.7 °F 29.7 in NE 2 mph 3 mph 81% 0 in 69 W/m2
11:28 56.1 °F 50.7 °F 29.7 in Calm   4 mph 82% 0 in 62 W/m2
11:33 55.9 °F 50.5 °F 29.7 in Calm   4 mph 82% 0.01 in 65 W/m2
11:38 55.9 °F 50.9 °F 29.7 in ENE 0.9 mph 3 mph 83% 0.01 in 76 W/m2
11:43 55.8 °F 51.1 °F 29.7 in Calm   4 mph 84% 0.01 in 120 W/m2
11:48 55.6 °F 51.1 °F 29.7 in ENE 4 mph 4 mph 85% 0.01 in 162 W/m2
11:53 55.6 °F 51.1 °F 29.7 in Calm   6 mph 85% 0.01 in 127 W/m2
11:58 55.6 °F 51.1 °F 29.7 in WNW 2 mph 4 mph 85% 0.01 in 86 W/m2
12:03 55.8 °F 51.3 °F 29.7 in ENE 0.9 mph 6 mph 85% 0.01 in 121 W/m2
12:08 55.8 °F 51.3 °F 29.7 in NE 2 mph 5 mph 85% 0.01 in 127 W/m2
12:13 55.9 °F 51.4 °F 29.7 in ENE 2 mph 3 mph 85% 0.01 in 98 W/m2
12:18 55.9 °F 51.4 °F 29.7 in ENE 0.9 mph 2 mph 85% 0.01 in 118 W/m2
12:24 55.9 °F 51.4 °F 29.7 in East 0.9 mph 4 mph 85% 0.01 in 128 W/m2
12:29 55.9 °F 51.3 °F 29.7 in NNE 2 mph 4 mph 84% 0.01 in 113 W/m2
12:34 56.1 °F 51.4 °F 29.7 in NE 2 mph 4 mph 84% 0 in 72 W/m2
12:39 56.1 °F 51.4 °F 29.7 in North 2 mph 2 mph 84% 0 in 76 W/m2
12:44 56.3 °F 51.4 °F 29.7 in Calm   4 mph 84% 0 in 42 W/m2
12:49 56.1 °F 51.4 °F 29.7 in NNW 0.9 mph 3 mph 84% 0 in 30 W/m2
12:54 56.1 °F 51.4 °F 29.7 in Calm   1 mph 84% 0 in 42 W/m2
12:59 56.1 °F 51.4 °F 29.7 in Calm   2 mph 84% 0.01 in 42 W/m2
13:04 55.9 °F 51.4 °F 29.7 in NNW 2 mph 3 mph 85% 0.01 in 37 W/m2
13:09 55.9 °F 51.4 °F 29.7 in NNW 4 mph 4 mph 85% 0.01 in 47 W/m2
13:14 55.8 °F 51.6 °F 29.7 in NNE 0.9 mph 4 mph 86% 0.01 in 53 W/m2
13:19 55.6 °F 51.4 °F 29.7 in NE 0.9 mph 4 mph 86% 0.01 in 49 W/m2
13:24 55.6 °F 51.4 °F 29.7 in NW 0.9 mph 4 mph 86% 0.02 in 51 W/m2
13:29 55.4 °F 51.6 °F 29.7 in NNW 2 mph 8 mph 87% 0.02 in 62 W/m2
13:34 55.2 °F 51.4 °F 29.7 in NNW 0.9 mph 5 mph 87% 0.02 in 74 W/m2
13:39 55.2 °F 51.4 °F 29.7 in NW 2.9 mph 8 mph 87% 0.02 in 65 W/m2
13:44 55.2 °F 51.4 °F 29.7 in NW 2.9 mph 3 mph 87% 0.02 in 67 W/m2
13:49 55.2 °F 51.8 °F 29.7 in NW 4 mph 5 mph 88% 0.02 in 65 W/m2
13:54 55 °F 51.6 °F 29.7 in NE 2 mph 3 mph 88% 0.02 in 46 W/m2
13:59 55 °F 51.8 °F 29.7 in Calm   2 mph 89% 0.02 in 44 W/m2
14:04 54.9 °F 51.6 °F 29.7 in NNE 2 mph 3 mph 89% 0.02 in 42 W/m2
14:09 54.9 °F 52 °F 29.7 in NNE 0.9 mph 2 mph 90% 0.03 in 47 W/m2
14:14 54.7 °F 51.8 °F 29.7 in NNE 0.9 mph 2 mph 90% 0.04 in 49 W/m2
14:19 54.5 °F 51.6 °F 29.7 in NNW 0.9 mph 2 mph 90% 0.05 in 54 W/m2
14:24 54.3 °F 51.8 °F 29.7 in North 2 mph 3 mph 91% 0.05 in 53 W/m2
14:29 54.3 °F 51.8 °F 29.7 in North 0.9 mph 2 mph 91% 0.06 in 49 W/m2
14:34 54.3 °F 51.8 °F 29.7 in Calm   3 mph 91% 0.06 in 44 W/m2
14:39 54.1 °F 51.8 °F 29.7 in Calm   3 mph 92% 0.07 in 47 W/m2
14:44 54.1 °F 51.8 °F 29.7 in ENE 0.9 mph 2 mph 92% 0.07 in 40 W/m2
14:49 54.1 °F 51.8 °F 29.7 in ENE 2.9 mph 4 mph 92% 0.07 in 26 W/m2
14:54 54.1 °F 51.8 °F 29.7 in WNW 2 mph 2 mph 92% 0.08 in 30 W/m2
14:59 54 °F 51.6 °F 29.7 in WNW 0.9 mph 2 mph 92% 0.09 in 32 W/m2
15:04 54 °F 52 °F 29.7 in Calm   1 mph 93% 0.08 in 32 W/m2
15:09 53.8 °F 51.8 °F 29.7 in NW 2.9 mph 3 mph 93% 0.08 in 28 W/m2
15:14 53.8 °F 51.8 °F 29.7 in West 0.9 mph 2 mph 93% 0.08 in 23 W/m2
15:19 53.8 °F 51.8 °F 29.7 in NNW 0.9 mph 1 mph 93% 0.07 in 21 W/m2
15:24 53.8 °F 51.8 °F 29.7 in North 0.9 mph 4 mph 93% 0.07 in 25 W/m2
15:29 53.8 °F 51.8 °F 29.7 in ENE 4 mph 4 mph 93% 0.06 in 12 W/m2
15:34 53.8 °F 51.8 °F 29.7 in Calm   4 mph 93% 0.07 in 28 W/m2
15:39 53.8 °F 51.8 °F 29.6 in East 0.9 mph 4 mph 93% 0.09 in 25 W/m2
15:44 53.6 °F 51.6 °F 29.7 in NNW 2 mph 2 mph 93% 0.09 in 11 W/m2
15:49 53.4 °F 51.4 °F 29.7 in NW 2 mph 5 mph 93% 0.09 in 12 W/m2
15:54 53.4 °F 51.4 °F 29.7 in Calm   5 mph 93% 0.09 in 19 W/m2
16:00 53.4 °F 51.4 °F 29.7 in East 0.9 mph 2 mph 93% 0.09 in 23 W/m2
16:05 53.2 °F 51.3 °F 29.7 in West 0.9 mph 6 mph 93% 0.09 in 11 W/m2
16:10 53.2 °F 51.3 °F 29.7 in North 0.9 mph 3 mph 93% 0.1 in 11 W/m2
16:15 53.1 °F 51.1 °F 29.7 in NE 0.9 mph 6 mph 93% 0.1 in 7 W/m2
16:20 53.1 °F 50.7 °F 29.7 in West 2.9 mph 3 mph 92% 0.11 in 5 W/m2
16:25 52.9 °F 50.9 °F 29.7 in NNW 2.9 mph 3 mph 93% 0.1 in 0 W/m2
16:30 52.9 °F 50.9 °F 29.7 in North 0.9 mph 1 mph 93% 0.11 in 5 W/m2
16:35 52.7 °F 50.7 °F 29.7 in West 0.9 mph 2 mph 93% 0.1 in 0 W/m2
16:40 52.5 °F 50.5 °F 29.7 in ENE 2.9 mph 3 mph 93% 0.09 in 5 W/m2
16:45 52.5 °F 50.5 °F 29.7 in NNW 0.9 mph 2 mph 93% 0.09 in 5 W/m2
16:50 52.5 °F 50.5 °F 29.7 in North 0.9 mph 2 mph 93% 0.09 in 7 W/m2
16:55 52.3 °F 50.4 °F 29.7 in Calm   4 mph 93% 0.09 in 5 W/m2
17:00 52.3 °F 50.4 °F 29.7 in East 2 mph 4 mph 93% 0.09 in 0 W/m2
17:05 52.3 °F 50.4 °F 29.7 in North 2 mph 4 mph 93% 0.09 in 5 W/m2
17:10 52.3 °F 50.4 °F 29.6 in ENE 2 mph 7 mph 93% 0.09 in 0 W/m2
17:15 52.2 °F 50.2 °F 29.6 in Calm   5 mph 93% 0.09 in 0 W/m2
17:20 52.2 °F 50.2 °F 29.6 in NE 0.9 mph 7 mph 93% 0.09 in 0 W/m2
17:25 52.2 °F 50.2 °F 29.6 in NE 2 mph 4 mph 93% 0.09 in 0 W/m2
17:30 52.2 °F 50.2 °F 29.6 in Calm   3 mph 93% 0.09 in 0 W/m2
17:35 52.2 °F 50.2 °F 29.6 in North 2 mph 4 mph 93% 0.08 in 0 W/m2
17:40 52.2 °F 50.2 °F 29.6 in North 0.9 mph 2 mph 93% 0.07 in 0 W/m2
17:45 52.2 °F 50.2 °F 29.6 in NE 2 mph 3 mph 93% 0.06 in 0 W/m2
17:50 52.2 °F 50.2 °F 29.6 in ENE 2 mph 6 mph 93% 0.05 in 0 W/m2
17:55 52.2 °F 49.8 °F 29.6 in NE 4.9 mph 9 mph 92% 0.05 in 0 W/m2
18:00 52.2 °F 49.8 °F 29.6 in ENE 4 mph 4 mph 92% 0.04 in 0 W/m2
18:05 52.2 °F 49.8 °F 29.6 in NE 2 mph 9 mph 92% 0.03 in 0 W/m2
18:10 52.2 °F 49.8 °F 29.6 in North 0.9 mph 6 mph 92% 0.02 in 0 W/m2
18:15 52.2 °F 49.8 °F 29.6 in ENE 2 mph 3 mph 92% 0.02 in 0 W/m2
18:20 52.2 °F 49.8 °F 29.6 in NW 0.9 mph 6 mph 92% 0.02 in 0 W/m2
18:25 52.2 °F 49.8 °F 29.7 in North 2 mph 3 mph 92% 0.02 in 0 W/m2
18:30 52 °F 49.6 °F 29.6 in Calm   1 mph 92% 0.02 in 0 W/m2
18:35 52 °F 49.6 °F 29.6 in Calm   2 mph 92% 0.02 in 0 W/m2
18:40 52 °F 49.6 °F 29.7 in WNW 0.9 mph 7 mph 92% 0.02 in 0 W/m2
18:45 51.8 °F 49.6 °F 29.7 in Calm   2 mph 92% 0.02 in 0 W/m2
18:50 51.8 °F 49.6 °F 29.7 in NNW 2 mph 7 mph 92% 0.02 in 0 W/m2
18:55 51.6 °F 49.5 °F 29.7 in Calm   2 mph 92% 0.01 in 0 W/m2
19:00 51.6 °F 49.5 °F 29.7 in East 0.9 mph 2 mph 92% 0.01 in 0 W/m2
19:05 51.6 °F 49.5 °F 29.6 in NE 0.9 mph 2 mph 92% 0.01 in 0 W/m2
19:10 51.6 °F 49.5 °F 29.6 in NE 0.9 mph 2 mph 92% 0.02 in 0 W/m2
19:15 51.4 °F 49.3 °F 29.7 in NW 0.9 mph 4 mph 92% 0.02 in 0 W/m2
19:20 51.4 °F 49.3 °F 29.7 in NNW 0.9 mph 2 mph 92% 0.01 in 0 W/m2
19:25 51.4 °F 49.3 °F 29.6 in Calm   1 mph 92% 0.01 in 0 W/m2
19:30 51.4 °F 49.3 °F 29.7 in North 0.9 mph 2 mph 92% 0.01 in 0 W/m2
19:35 51.4 °F 49.3 °F 29.6 in North 2 mph 3 mph 92% 0.01 in 0 W/m2
19:40 51.4 °F 49.3 °F 29.6 in NE 0.9 mph 1 mph 92% 0.01 in 0 W/m2
19:45 51.3 °F 49.3 °F 29.7 in WNW 2 mph 4 mph 93% 0.01 in 0 W/m2
19:50 51.3 °F 49.3 °F 29.6 in WNW 0.9 mph 1 mph 93% 0.01 in 0 W/m2
19:55 51.1 °F 49.1 °F 29.6 in NE 0.9 mph 4 mph 93% 0.01 in 0 W/m2
20:00 51.1 °F 49.1 °F 29.6 in NE 0.9 mph 1 mph 93% 0.01 in 0 W/m2
20:05 50.7 °F 48.7 °F 29.6 in Calm   2 mph 93% 0.01 in 0 W/m2
20:10 50.7 °F 48.7 °F 29.6 in East 0.9 mph 1 mph 93% 0 in 0 W/m2
20:15 50.5 °F 48.9 °F 29.6 in Calm     94% 0 in 0 W/m2
20:20 50.5 °F 48.9 °F 29.6 in Calm   2 mph 94% 0 in 0 W/m2
20:25 50.4 °F 48.7 °F 29.7 in Calm     94% 0 in 0 W/m2
20:30 50.4 °F 48.7 °F 29.6 in Calm     94% 0 in 0 W/m2
20:35 50.4 °F 48.7 °F 29.6 in Calm     94% 0 in 0 W/m2
20:40 50.2 °F 48.6 °F 29.6 in NE 0.9 mph 4 mph 94% 0 in 0 W/m2
20:45 50.2 °F 48.6 °F 29.6 in Calm   1 mph 94% 0 in 0 W/m2
20:50 50.2 °F 48.7 °F 29.6 in NE 0.9 mph 4 mph 95% 0 in 0 W/m2
20:55 50.2 °F 48.7 °F 29.6 in ENE 2 mph 4 mph 95% 0 in 0 W/m2
21:00 50.2 °F 48.7 °F 29.6 in ENE 0.9 mph 1 mph 95% 0 in 0 W/m2
21:05 50.2 °F 48.7 °F 29.6 in Calm   4 mph 95% 0 in 0 W/m2
21:10 50.2 °F 48.7 °F 29.6 in Calm   1 mph 95% 0 in 0 W/m2
21:15 50 °F 48.6 °F 29.6 in Calm     95% 0 in 0 W/m2
21:20 50 °F 48.6 °F 29.6 in Calm     95% 0 in 0 W/m2
21:25 49.8 °F 48.4 °F 29.6 in Calm     95% 0 in 0 W/m2
21:30 49.8 °F 48.4 °F 29.6 in Calm     95% 0 in 0 W/m2
21:35 49.8 °F 48.4 °F 29.6 in Calm     95% 0 in 0 W/m2
21:40 49.6 °F 48.2 °F 29.6 in Calm     95% 0 in 0 W/m2
21:45 49.6 °F 48.2 °F 29.6 in Calm     95% 0 in 0 W/m2
21:50 49.6 °F 48.2 °F 29.6 in Calm     95% 0 in 0 W/m2
21:55 49.5 °F 48 °F 29.6 in ENE 0.9 mph 1 mph 95% 0 in 0 W/m2
22:00 49.6 °F 48.6 °F 29.6 in Calm   2 mph 96% 0 in 0 W/m2
22:05 49.6 °F 48.6 °F 29.6 in Calm   2 mph 96% 0 in 0 W/m2
22:10 49.6 °F 48.6 °F 29.6 in Calm     96% 0 in 0 W/m2
22:15 49.6 °F 48.6 °F 29.6 in ENE 0.9 mph 2 mph 96% 0 in 0 W/m2
22:20 49.8 °F 48.7 °F 29.6 in ENE 0.9 mph 4 mph 96% 0 in 0 W/m2
22:25 49.8 °F 48.7 °F 29.6 in NE 2 mph 3 mph 96% 0 in 0 W/m2
22:30 50 °F 48.9 °F 29.6 in NE 0.9 mph 3 mph 96% 0 in 0 W/m2
22:35 50 °F 48.9 °F 29.6 in Calm     96% 0 in 0 W/m2
22:40 50 °F 48.9 °F 29.6 in Calm   1 mph 96% 0 in 0 W/m2
22:45 50 °F 48.9 °F 29.6 in NE 0.9 mph 1 mph 96% 0 in 0 W/m2
22:50 50 °F 48.9 °F 29.6 in Calm     96% 0 in 0 W/m2
22:55 50 °F 48.9 °F 29.6 in Calm     96% 0 in 0 W/m2
23:00 50 °F 48.9 °F 29.6 in Calm     96% 0 in 0 W/m2
23:05 50 °F 48.9 °F 29.6 in Calm   2 mph 96% 0 in 0 W/m2
23:10 49.8 °F 48.7 °F 29.6 in NE 0.9 mph 1 mph 96% 0 in 0 W/m2
23:15 49.8 °F 48.7 °F 29.6 in Calm   2 mph 96% 0 in 0 W/m2
23:20 49.8 °F 48.7 °F 29.6 in Calm     96% 0 in 0 W/m2
23:25 49.8 °F 48.7 °F 29.6 in Calm     96% 0 in 0 W/m2
23:30 49.8 °F 48.7 °F 29.6 in NE 0.9 mph 3 mph 96% 0 in 0 W/m2
23:35 49.8 °F 48.7 °F 29.6 in East 0.9 mph 2 mph 96% 0 in 0 W/m2
23:40 49.8 °F 48.7 °F 29.6 in East 0.9 mph 1 mph 96% 0 in 0 W/m2
23:45 49.8 °F 48.7 °F 29.6 in East 0.9 mph 1 mph 96% 0 in 0 W/m2
23:50 49.8 °F 48.7 °F 29.6 in Calm   1 mph 96% 0 in 0 W/m2
23:55 49.8 °F 48.7 °F 29.6 in NE 0.9 mph 2 mph 96% 0 in 0 W/m2
Juneau County Weather
Compliments of Weather Underground - 4 mb